sensor_id;sensor_type;location;lat;lon;timestamp;P1;durP1;ratioP1;P2;durP2;ratioP2
10387;SDS011;5240;51.128;4.566;2022-11-04T00:01:58;9.43;;;4.30;;
10387;SDS011;5240;51.128;4.566;2022-11-04T00:04:27;8.63;;;4.43;;
10387;SDS011;5240;51.128;4.566;2022-11-04T00:06:56;6.22;;;4.30;;
10387;SDS011;5240;51.128;4.566;2022-11-04T00:09:24;13.05;;;4.75;;
10387;SDS011;5240;51.128;4.566;2022-11-04T00:11:53;9.32;;;3.92;;
10387;SDS011;5240;51.128;4.566;2022-11-04T00:14:37;7.78;;;3.90;;
10387;SDS011;5240;51.128;4.566;2022-11-04T00:17:04;9.52;;;3.80;;
10387;SDS011;5240;51.128;4.566;2022-11-04T00:19:43;9.32;;;4.32;;
10387;SDS011;5240;51.128;4.566;2022-11-04T00:22:29;6.28;;;3.72;;
10387;SDS011;5240;51.128;4.566;2022-11-04T00:25:22;5.97;;;3.78;;
10387;SDS011;5240;51.128;4.566;2022-11-04T00:28:09;7.75;;;3.65;;
10387;SDS011;5240;51.128;4.566;2022-11-04T00:30:55;8.60;;;3.38;;
10387;SDS011;5240;51.128;4.566;2022-11-04T00:33:43;7.07;;;3.30;;
10387;SDS011;5240;51.128;4.566;2022-11-04T00:36:09;6.55;;;3.20;;
10387;SDS011;5240;51.128;4.566;2022-11-04T00:38:37;7.45;;;2.97;;
10387;SDS011;5240;51.128;4.566;2022-11-04T00:41:04;5.68;;;2.75;;
10387;SDS011;5240;51.128;4.566;2022-11-04T00:43:50;4.68;;;2.97;;
10387;SDS011;5240;51.128;4.566;2022-11-04T00:46:17;6.13;;;3.10;;
10387;SDS011;5240;51.128;4.566;2022-11-04T00:48:44;8.32;;;3.00;;
10387;SDS011;5240;51.128;4.566;2022-11-04T00:51:11;4.97;;;2.78;;
10387;SDS011;5240;51.128;4.566;2022-11-04T00:53:39;8.10;;;2.70;;
10387;SDS011;5240;51.128;4.566;2022-11-04T00:56:06;7.80;;;2.90;;
10387;SDS011;5240;51.128;4.566;2022-11-04T00:58:33;6.95;;;2.72;;
10387;SDS011;5240;51.128;4.566;2022-11-04T01:01:05;7.63;;;3.22;;
10387;SDS011;5240;51.128;4.566;2022-11-04T01:03:33;6.45;;;3.17;;
10387;SDS011;5240;51.128;4.566;2022-11-04T01:06:00;7.85;;;3.20;;
10387;SDS011;5240;51.128;4.566;2022-11-04T01:08:27;6.88;;;2.95;;
10387;SDS011;5240;51.128;4.566;2022-11-04T01:10:56;7.45;;;2.72;;
10387;SDS011;5240;51.128;4.566;2022-11-04T01:13:26;6.22;;;2.85;;
10387;SDS011;5240;51.128;4.566;2022-11-04T01:15:53;9.55;;;3.83;;
10387;SDS011;5240;51.128;4.566;2022-11-04T01:18:23;8.75;;;2.88;;
10387;SDS011;5240;51.128;4.566;2022-11-04T01:20:50;4.20;;;2.60;;
10387;SDS011;5240;51.128;4.566;2022-11-04T01:23:17;7.00;;;3.05;;
10387;SDS011;5240;51.128;4.566;2022-11-04T01:25:44;7.32;;;2.97;;
10387;SDS011;5240;51.128;4.566;2022-11-04T01:28:12;7.90;;;2.65;;
10387;SDS011;5240;51.128;4.566;2022-11-04T01:30:39;6.45;;;2.45;;
10387;SDS011;5240;51.128;4.566;2022-11-04T01:33:06;6.68;;;2.78;;
10387;SDS011;5240;51.128;4.566;2022-11-04T01:35:33;7.38;;;2.47;;
10387;SDS011;5240;51.128;4.566;2022-11-04T01:38:00;6.43;;;2.47;;
10387;SDS011;5240;51.128;4.566;2022-11-04T01:40:27;5.32;;;2.30;;
10387;SDS011;5240;51.128;4.566;2022-11-04T01:42:54;6.32;;;2.28;;
10387;SDS011;5240;51.128;4.566;2022-11-04T01:45:23;9.80;;;2.50;;
10387;SDS011;5240;51.128;4.566;2022-11-04T01:47:52;4.78;;;2.20;;
10387;SDS011;5240;51.128;4.566;2022-11-04T01:50:25;6.57;;;2.50;;
10387;SDS011;5240;51.128;4.566;2022-11-04T01:52:56;6.35;;;2.45;;
10387;SDS011;5240;51.128;4.566;2022-11-04T01:55:29;6.30;;;2.30;;
10387;SDS011;5240;51.128;4.566;2022-11-04T01:57:59;5.45;;;2.25;;
10387;SDS011;5240;51.128;4.566;2022-11-04T02:00:30;6.15;;;1.90;;
10387;SDS011;5240;51.128;4.566;2022-11-04T02:02:58;8.75;;;2.20;;
10387;SDS011;5240;51.128;4.566;2022-11-04T02:05:29;5.60;;;1.83;;
10387;SDS011;5240;51.128;4.566;2022-11-04T02:07:57;5.20;;;2.10;;
10387;SDS011;5240;51.128;4.566;2022-11-04T02:10:28;5.93;;;1.92;;
10387;SDS011;5240;51.128;4.566;2022-11-04T02:12:58;4.10;;;1.88;;
10387;SDS011;5240;51.128;4.566;2022-11-04T02:15:29;5.22;;;2.25;;
10387;SDS011;5240;51.128;4.566;2022-11-04T02:18:16;7.82;;;2.03;;
10387;SDS011;5240;51.128;4.566;2022-11-04T02:21:03;5.15;;;1.90;;
10387;SDS011;5240;51.128;4.566;2022-11-04T02:27:02;7.03;;;2.00;;
10387;SDS011;5240;51.128;4.566;2022-11-04T02:29:58;6.60;;;2.30;;
10387;SDS011;5240;51.128;4.566;2022-11-04T02:32:38;4.35;;;2.20;;
10387;SDS011;5240;51.128;4.566;2022-11-04T02:35:19;7.07;;;2.28;;
10387;SDS011;5240;51.128;4.566;2022-11-04T02:37:52;6.60;;;2.13;;
10387;SDS011;5240;51.128;4.566;2022-11-04T02:40:29;5.72;;;2.20;;
10387;SDS011;5240;51.128;4.566;2022-11-04T02:43:06;6.25;;;2.30;;
10387;SDS011;5240;51.128;4.566;2022-11-04T02:45:40;6.43;;;2.22;;
10387;SDS011;5240;51.128;4.566;2022-11-04T02:48:10;6.70;;;2.00;;
10387;SDS011;5240;51.128;4.566;2022-11-04T02:50:45;6.88;;;2.00;;
10387;SDS011;5240;51.128;4.566;2022-11-04T02:53:20;7.20;;;2.13;;
10387;SDS011;5240;51.128;4.566;2022-11-04T02:55:51;8.48;;;2.30;;
10387;SDS011;5240;51.128;4.566;2022-11-04T02:58:22;9.95;;;2.58;;
10387;SDS011;5240;51.128;4.566;2022-11-04T03:00:56;6.25;;;2.25;;
10387;SDS011;5240;51.128;4.566;2022-11-04T03:03:25;8.30;;;2.33;;
10387;SDS011;5240;51.128;4.566;2022-11-04T03:05:56;9.93;;;2.50;;
10387;SDS011;5240;51.128;4.566;2022-11-04T03:08:26;7.00;;;2.47;;
10387;SDS011;5240;51.128;4.566;2022-11-04T03:10:57;8.82;;;2.70;;
10387;SDS011;5240;51.128;4.566;2022-11-04T03:13:31;5.78;;;2.50;;
10387;SDS011;5240;51.128;4.566;2022-11-04T03:16:04;7.88;;;2.08;;
10387;SDS011;5240;51.128;4.566;2022-11-04T03:18:37;6.10;;;2.17;;
10387;SDS011;5240;51.128;4.566;2022-11-04T03:21:13;7.47;;;2.47;;
10387;SDS011;5240;51.128;4.566;2022-11-04T03:23:41;9.00;;;2.72;;
10387;SDS011;5240;51.128;4.566;2022-11-04T03:26:11;9.73;;;2.70;;
10387;SDS011;5240;51.128;4.566;2022-11-04T03:28:49;10.13;;;2.65;;
10387;SDS011;5240;51.128;4.566;2022-11-04T03:31:23;9.38;;;2.30;;
10387;SDS011;5240;51.128;4.566;2022-11-04T03:33:54;9.00;;;2.75;;
10387;SDS011;5240;51.128;4.566;2022-11-04T03:36:21;6.80;;;2.38;;
10387;SDS011;5240;51.128;4.566;2022-11-04T03:38:49;8.38;;;2.53;;
10387;SDS011;5240;51.128;4.566;2022-11-04T03:41:18;5.75;;;2.58;;
10387;SDS011;5240;51.128;4.566;2022-11-04T03:43:50;11.18;;;2.80;;
10387;SDS011;5240;51.128;4.566;2022-11-04T03:46:19;6.60;;;2.40;;
10387;SDS011;5240;51.128;4.566;2022-11-04T03:48:48;6.50;;;2.30;;
10387;SDS011;5240;51.128;4.566;2022-11-04T03:51:17;8.35;;;2.85;;
10387;SDS011;5240;51.128;4.566;2022-11-04T03:53:44;8.30;;;2.78;;
10387;SDS011;5240;51.128;4.566;2022-11-04T03:56:31;10.32;;;2.63;;
10387;SDS011;5240;51.128;4.566;2022-11-04T03:59:24;12.73;;;2.70;;
10387;SDS011;5240;51.128;4.566;2022-11-04T04:02:08;11.10;;;2.67;;
10387;SDS011;5240;51.128;4.566;2022-11-04T04:04:42;8.35;;;2.85;;
10387;SDS011;5240;51.128;4.566;2022-11-04T04:07:16;7.50;;;2.75;;
10387;SDS011;5240;51.128;4.566;2022-11-04T04:09:47;5.07;;;2.22;;
10387;SDS011;5240;51.128;4.566;2022-11-04T04:12:22;7.00;;;3.25;;
10387;SDS011;5240;51.128;4.566;2022-11-04T04:14:57;9.45;;;2.92;;
10387;SDS011;5240;51.128;4.566;2022-11-04T04:17:33;7.32;;;2.50;;
10387;SDS011;5240;51.128;4.566;2022-11-04T04:20:07;13.93;;;3.40;;
10387;SDS011;5240;51.128;4.566;2022-11-04T04:22:39;8.63;;;3.00;;
10387;SDS011;5240;51.128;4.566;2022-11-04T04:25:10;9.25;;;2.53;;
10387;SDS011;5240;51.128;4.566;2022-11-04T04:27:57;10.77;;;2.92;;
10387;SDS011;5240;51.128;4.566;2022-11-04T04:30:26;8.65;;;3.25;;
10387;SDS011;5240;51.128;4.566;2022-11-04T04:32:54;9.98;;;2.55;;
10387;SDS011;5240;51.128;4.566;2022-11-04T04:35:25;11.65;;;2.60;;
10387;SDS011;5240;51.128;4.566;2022-11-04T04:38:13;10.98;;;2.85;;
10387;SDS011;5240;51.128;4.566;2022-11-04T04:41:03;7.65;;;2.97;;
10387;SDS011;5240;51.128;4.566;2022-11-04T04:43:53;7.05;;;2.45;;
10387;SDS011;5240;51.128;4.566;2022-11-04T04:46:37;5.45;;;2.70;;
10387;SDS011;5240;51.128;4.566;2022-11-04T04:49:07;9.13;;;2.85;;
10387;SDS011;5240;51.128;4.566;2022-11-04T04:51:37;8.23;;;2.78;;
10387;SDS011;5240;51.128;4.566;2022-11-04T04:54:07;9.80;;;3.10;;
10387;SDS011;5240;51.128;4.566;2022-11-04T04:56:34;6.20;;;2.45;;
10387;SDS011;5240;51.128;4.566;2022-11-04T04:59:01;8.05;;;2.97;;
10387;SDS011;5240;51.128;4.566;2022-11-04T05:01:29;9.52;;;2.95;;
10387;SDS011;5240;51.128;4.566;2022-11-04T05:03:56;5.30;;;2.60;;
10387;SDS011;5240;51.128;4.566;2022-11-04T05:06:23;13.15;;;3.90;;
10387;SDS011;5240;51.128;4.566;2022-11-04T05:08:51;9.07;;;2.88;;
10387;SDS011;5240;51.128;4.566;2022-11-04T05:11:18;9.25;;;3.40;;
10387;SDS011;5240;51.128;4.566;2022-11-04T05:13:45;9.38;;;3.15;;
10387;SDS011;5240;51.128;4.566;2022-11-04T05:16:12;7.25;;;2.60;;
10387;SDS011;5240;51.128;4.566;2022-11-04T05:18:39;10.82;;;3.28;;
10387;SDS011;5240;51.128;4.566;2022-11-04T05:21:07;11.57;;;2.97;;
10387;SDS011;5240;51.128;4.566;2022-11-04T05:23:37;10.15;;;3.25;;
10387;SDS011;5240;51.128;4.566;2022-11-04T05:26:05;7.78;;;2.95;;
10387;SDS011;5240;51.128;4.566;2022-11-04T05:31:54;12.90;;;3.55;;
10387;SDS011;5240;51.128;4.566;2022-11-04T05:34:22;10.13;;;3.60;;
10387;SDS011;5240;51.128;4.566;2022-11-04T05:36:49;11.85;;;3.05;;
10387;SDS011;5240;51.128;4.566;2022-11-04T05:39:16;10.35;;;3.30;;
10387;SDS011;5240;51.128;4.566;2022-11-04T05:41:45;11.80;;;3.38;;
10387;SDS011;5240;51.128;4.566;2022-11-04T05:44:12;7.70;;;3.28;;
10387;SDS011;5240;51.128;4.566;2022-11-04T05:46:41;10.65;;;3.75;;
10387;SDS011;5240;51.128;4.566;2022-11-04T05:49:08;7.65;;;3.10;;
10387;SDS011;5240;51.128;4.566;2022-11-04T05:51:36;12.57;;;3.47;;
10387;SDS011;5240;51.128;4.566;2022-11-04T05:54:03;9.02;;;3.40;;
10387;SDS011;5240;51.128;4.566;2022-11-04T05:56:30;6.22;;;2.97;;
10387;SDS011;5240;51.128;4.566;2022-11-04T05:58:58;7.90;;;3.28;;
10387;SDS011;5240;51.128;4.566;2022-11-04T06:01:27;10.23;;;3.42;;
10387;SDS011;5240;51.128;4.566;2022-11-04T06:03:56;10.48;;;2.90;;
10387;SDS011;5240;51.128;4.566;2022-11-04T06:06:24;14.27;;;3.70;;
10387;SDS011;5240;51.128;4.566;2022-11-04T06:08:52;8.93;;;3.10;;
10387;SDS011;5240;51.128;4.566;2022-11-04T06:11:20;9.00;;;3.53;;
10387;SDS011;5240;51.128;4.566;2022-11-04T06:13:48;6.05;;;3.00;;
10387;SDS011;5240;51.128;4.566;2022-11-04T06:16:17;10.23;;;3.38;;
10387;SDS011;5240;51.128;4.566;2022-11-04T06:18:46;9.82;;;3.47;;
10387;SDS011;5240;51.128;4.566;2022-11-04T06:21:23;12.63;;;3.30;;
10387;SDS011;5240;51.128;4.566;2022-11-04T06:23:53;10.57;;;3.10;;
10387;SDS011;5240;51.128;4.566;2022-11-04T06:26:22;10.20;;;3.25;;
10387;SDS011;5240;51.128;4.566;2022-11-04T06:28:49;12.70;;;3.75;;
10387;SDS011;5240;51.128;4.566;2022-11-04T06:31:18;9.02;;;4.00;;
10387;SDS011;5240;51.128;4.566;2022-11-04T06:33:45;10.80;;;3.40;;
10387;SDS011;5240;51.128;4.566;2022-11-04T06:36:13;11.68;;;3.80;;
10387;SDS011;5240;51.128;4.566;2022-11-04T06:38:41;9.45;;;3.60;;
10387;SDS011;5240;51.128;4.566;2022-11-04T06:41:10;9.77;;;3.90;;
10387;SDS011;5240;51.128;4.566;2022-11-04T06:43:39;8.10;;;3.40;;
10387;SDS011;5240;51.128;4.566;2022-11-04T06:46:20;17.67;;;4.18;;
10387;SDS011;5240;51.128;4.566;2022-11-04T06:48:51;11.27;;;4.32;;
10387;SDS011;5240;51.128;4.566;2022-11-04T06:51:18;10.98;;;3.80;;
10387;SDS011;5240;51.128;4.566;2022-11-04T06:53:45;10.50;;;4.07;;
10387;SDS011;5240;51.128;4.566;2022-11-04T06:56:12;10.38;;;3.72;;
10387;SDS011;5240;51.128;4.566;2022-11-04T06:58:40;10.48;;;3.53;;
10387;SDS011;5240;51.128;4.566;2022-11-04T07:01:07;8.98;;;3.60;;
10387;SDS011;5240;51.128;4.566;2022-11-04T07:03:35;10.55;;;3.60;;
10387;SDS011;5240;51.128;4.566;2022-11-04T07:06:05;9.02;;;3.78;;
10387;SDS011;5240;51.128;4.566;2022-11-04T07:08:33;10.70;;;3.65;;
10387;SDS011;5240;51.128;4.566;2022-11-04T07:11:01;6.72;;;3.00;;
10387;SDS011;5240;51.128;4.566;2022-11-04T07:13:29;10.30;;;3.65;;
10387;SDS011;5240;51.128;4.566;2022-11-04T07:15:56;10.30;;;3.53;;
10387;SDS011;5240;51.128;4.566;2022-11-04T07:18:24;14.15;;;3.60;;
10387;SDS011;5240;51.128;4.566;2022-11-04T07:20:52;13.77;;;3.72;;
10387;SDS011;5240;51.128;4.566;2022-11-04T07:23:19;15.85;;;3.88;;
10387;SDS011;5240;51.128;4.566;2022-11-04T07:25:46;11.77;;;4.22;;
10387;SDS011;5240;51.128;4.566;2022-11-04T07:28:13;9.10;;;3.67;;
10387;SDS011;5240;51.128;4.566;2022-11-04T07:30:40;13.00;;;3.92;;
10387;SDS011;5240;51.128;4.566;2022-11-04T07:33:07;10.73;;;3.75;;
10387;SDS011;5240;51.128;4.566;2022-11-04T07:35:35;8.95;;;3.90;;
10387;SDS011;5240;51.128;4.566;2022-11-04T07:38:04;7.45;;;3.80;;
10387;SDS011;5240;51.128;4.566;2022-11-04T07:40:31;10.70;;;3.92;;
10387;SDS011;5240;51.128;4.566;2022-11-04T07:42:59;9.05;;;4.40;;
10387;SDS011;5240;51.128;4.566;2022-11-04T07:45:26;8.25;;;4.43;;
10387;SDS011;5240;51.128;4.566;2022-11-04T07:47:53;10.73;;;4.03;;
10387;SDS011;5240;51.128;4.566;2022-11-04T07:50:20;12.90;;;4.70;;
10387;SDS011;5240;51.128;4.566;2022-11-04T07:52:47;13.05;;;4.00;;
10387;SDS011;5240;51.128;4.566;2022-11-04T07:55:16;9.70;;;3.85;;
10387;SDS011;5240;51.128;4.566;2022-11-04T07:57:43;8.18;;;4.15;;
10387;SDS011;5240;51.128;4.566;2022-11-04T08:00:11;11.45;;;4.05;;
10387;SDS011;5240;51.128;4.566;2022-11-04T08:02:40;13.20;;;4.80;;
10387;SDS011;5240;51.128;4.566;2022-11-04T08:05:08;10.38;;;4.28;;
10387;SDS011;5240;51.128;4.566;2022-11-04T08:07:36;10.73;;;4.03;;
10387;SDS011;5240;51.128;4.566;2022-11-04T08:10:03;13.48;;;4.82;;
10387;SDS011;5240;51.128;4.566;2022-11-04T08:12:32;9.95;;;4.03;;
10387;SDS011;5240;51.128;4.566;2022-11-04T08:15:02;10.27;;;4.25;;
10387;SDS011;5240;51.128;4.566;2022-11-04T08:17:30;15.55;;;4.35;;
10387;SDS011;5240;51.128;4.566;2022-11-04T08:19:57;10.85;;;4.20;;
10387;SDS011;5240;51.128;4.566;2022-11-04T08:22:24;12.52;;;4.50;;
10387;SDS011;5240;51.128;4.566;2022-11-04T08:24:51;9.02;;;3.90;;
10387;SDS011;5240;51.128;4.566;2022-11-04T08:27:18;11.18;;;4.85;;
10387;SDS011;5240;51.128;4.566;2022-11-04T08:29:46;10.20;;;4.65;;
10387;SDS011;5240;51.128;4.566;2022-11-04T08:32:13;9.15;;;4.03;;
10387;SDS011;5240;51.128;4.566;2022-11-04T08:34:40;9.50;;;4.05;;
10387;SDS011;5240;51.128;4.566;2022-11-04T08:37:07;8.85;;;3.97;;
10387;SDS011;5240;51.128;4.566;2022-11-04T08:39:34;10.18;;;3.72;;
10387;SDS011;5240;51.128;4.566;2022-11-04T08:42:01;13.63;;;4.00;;
10387;SDS011;5240;51.128;4.566;2022-11-04T08:44:29;7.53;;;4.22;;
10387;SDS011;5240;51.128;4.566;2022-11-04T08:46:58;9.38;;;3.75;;
10387;SDS011;5240;51.128;4.566;2022-11-04T08:49:26;8.35;;;4.03;;
10387;SDS011;5240;51.128;4.566;2022-11-04T08:51:53;11.80;;;4.75;;
10387;SDS011;5240;51.128;4.566;2022-11-04T08:54:21;12.55;;;4.10;;
10387;SDS011;5240;51.128;4.566;2022-11-04T08:56:48;12.02;;;4.03;;
10387;SDS011;5240;51.128;4.566;2022-11-04T08:59:16;11.07;;;3.80;;
10387;SDS011;5240;51.128;4.566;2022-11-04T09:05:08;10.15;;;3.50;;
10387;SDS011;5240;51.128;4.566;2022-11-04T09:07:35;9.40;;;3.65;;
10387;SDS011;5240;51.128;4.566;2022-11-04T09:10:02;9.85;;;3.70;;
10387;SDS011;5240;51.128;4.566;2022-11-04T09:12:30;10.30;;;3.80;;
10387;SDS011;5240;51.128;4.566;2022-11-04T09:14:57;7.03;;;3.72;;
10387;SDS011;5240;51.128;4.566;2022-11-04T09:17:24;9.73;;;4.28;;
10387;SDS011;5240;51.128;4.566;2022-11-04T09:19:51;8.20;;;4.05;;
10387;SDS011;5240;51.128;4.566;2022-11-04T09:22:20;9.35;;;3.92;;
10387;SDS011;5240;51.128;4.566;2022-11-04T09:24:47;10.35;;;4.40;;
10387;SDS011;5240;51.128;4.566;2022-11-04T09:27:14;8.40;;;4.15;;
10387;SDS011;5240;51.128;4.566;2022-11-04T09:29:41;8.55;;;4.00;;
10387;SDS011;5240;51.128;4.566;2022-11-04T09:32:08;8.35;;;4.18;;
10387;SDS011;5240;51.128;4.566;2022-11-04T09:34:35;5.55;;;3.50;;
10387;SDS011;5240;51.128;4.566;2022-11-04T09:37:02;8.48;;;3.95;;
10387;SDS011;5240;51.128;4.566;2022-11-04T09:39:30;9.52;;;4.10;;
10387;SDS011;5240;51.128;4.566;2022-11-04T09:42:00;8.55;;;4.93;;
10387;SDS011;5240;51.128;4.566;2022-11-04T09:44:42;9.48;;;5.28;;
10387;SDS011;5240;51.128;4.566;2022-11-04T09:47:16;10.13;;;5.03;;
10387;SDS011;5240;51.128;4.566;2022-11-04T09:49:46;14.73;;;5.40;;
10387;SDS011;5240;51.128;4.566;2022-11-04T09:52:16;12.07;;;5.85;;
10387;SDS011;5240;51.128;4.566;2022-11-04T09:54:53;8.35;;;5.13;;
10387;SDS011;5240;51.128;4.566;2022-11-04T09:57:24;11.00;;;5.40;;
10387;SDS011;5240;51.128;4.566;2022-11-04T09:59:51;10.98;;;5.57;;
10387;SDS011;5240;51.128;4.566;2022-11-04T10:02:24;11.55;;;5.47;;
10387;SDS011;5240;51.128;4.566;2022-11-04T10:05:03;15.35;;;5.68;;
10387;SDS011;5240;51.128;4.566;2022-11-04T10:07:40;9.55;;;4.97;;
10387;SDS011;5240;51.128;4.566;2022-11-04T10:10:19;8.27;;;4.47;;
10387;SDS011;5240;51.128;4.566;2022-11-04T10:13:07;10.43;;;4.72;;
10387;SDS011;5240;51.128;4.566;2022-11-04T10:15:46;13.63;;;5.88;;
10387;SDS011;5240;51.128;4.566;2022-11-04T10:18:29;11.20;;;6.20;;
10387;SDS011;5240;51.128;4.566;2022-11-04T10:21:09;13.18;;;6.63;;
10387;SDS011;5240;51.128;4.566;2022-11-04T10:23:54;14.52;;;8.40;;
10387;SDS011;5240;51.128;4.566;2022-11-04T10:26:32;15.05;;;9.60;;
10387;SDS011;5240;51.128;4.566;2022-11-04T10:29:07;15.32;;;10.05;;
10387;SDS011;5240;51.128;4.566;2022-11-04T10:31:39;15.50;;;10.95;;
10387;SDS011;5240;51.128;4.566;2022-11-04T10:34:13;13.43;;;11.10;;
10387;SDS011;5240;51.128;4.566;2022-11-04T10:36:47;18.75;;;12.38;;
10387;SDS011;5240;51.128;4.566;2022-11-04T10:39:16;16.23;;;11.77;;
10387;SDS011;5240;51.128;4.566;2022-11-04T10:41:52;17.75;;;12.43;;
10387;SDS011;5240;51.128;4.566;2022-11-04T10:44:19;19.23;;;12.50;;
10387;SDS011;5240;51.128;4.566;2022-11-04T10:46:51;23.30;;;12.48;;
10387;SDS011;5240;51.128;4.566;2022-11-04T10:52:22;24.90;;;15.90;;
10387;SDS011;5240;51.128;4.566;2022-11-04T10:54:49;19.30;;;13.77;;
10387;SDS011;5240;51.128;4.566;2022-11-04T10:57:18;23.42;;;14.85;;
10387;SDS011;5240;51.128;4.566;2022-11-04T10:59:51;21.23;;;15.07;;
10387;SDS011;5240;51.128;4.566;2022-11-04T11:02:30;16.90;;;14.57;;
10387;SDS011;5240;51.128;4.566;2022-11-04T11:05:22;20.60;;;14.02;;
10387;SDS011;5240;51.128;4.566;2022-11-04T11:07:51;15.98;;;13.15;;
10387;SDS011;5240;51.128;4.566;2022-11-04T11:10:20;17.08;;;14.10;;
10387;SDS011;5240;51.128;4.566;2022-11-04T11:12:51;19.58;;;13.43;;
10387;SDS011;5240;51.128;4.566;2022-11-04T11:15:30;22.02;;;14.27;;
10387;SDS011;5240;51.128;4.566;2022-11-04T11:18:10;15.43;;;13.85;;
10387;SDS011;5240;51.128;4.566;2022-11-04T11:20:40;17.98;;;12.40;;
10387;SDS011;5240;51.128;4.566;2022-11-04T11:26:01;18.67;;;13.55;;
10387;SDS011;5240;51.128;4.566;2022-11-04T11:28:30;17.92;;;14.00;;
10387;SDS011;5240;51.128;4.566;2022-11-04T11:31:03;19.45;;;13.80;;
10387;SDS011;5240;51.128;4.566;2022-11-04T11:33:38;23.45;;;17.98;;
10387;SDS011;5240;51.128;4.566;2022-11-04T11:36:14;16.73;;;14.93;;
10387;SDS011;5240;51.128;4.566;2022-11-04T11:38:51;20.73;;;14.90;;
10387;SDS011;5240;51.128;4.566;2022-11-04T11:41:22;17.52;;;15.63;;
10387;SDS011;5240;51.128;4.566;2022-11-04T11:43:58;21.10;;;15.18;;
10387;SDS011;5240;51.128;4.566;2022-11-04T11:46:28;21.52;;;15.15;;
10387;SDS011;5240;51.128;4.566;2022-11-04T11:48:57;21.67;;;14.43;;
10387;SDS011;5240;51.128;4.566;2022-11-04T11:51:27;19.60;;;14.82;;
10387;SDS011;5240;51.128;4.566;2022-11-04T11:56:43;27.83;;;22.08;;
10387;SDS011;5240;51.128;4.566;2022-11-04T11:59:27;20.67;;;15.30;;
10387;SDS011;5240;51.128;4.566;2022-11-04T12:02:03;21.05;;;15.60;;
10387;SDS011;5240;51.128;4.566;2022-11-04T12:04:45;21.35;;;16.63;;
10387;SDS011;5240;51.128;4.566;2022-11-04T12:07:14;20.30;;;15.93;;
10387;SDS011;5240;51.128;4.566;2022-11-04T12:09:52;20.35;;;16.15;;
10387;SDS011;5240;51.128;4.566;2022-11-04T12:12:31;21.40;;;15.18;;
10387;SDS011;5240;51.128;4.566;2022-11-04T12:15:14;21.20;;;14.70;;
10387;SDS011;5240;51.128;4.566;2022-11-04T12:17:53;21.75;;;16.13;;
10387;SDS011;5240;51.128;4.566;2022-11-04T12:20:39;22.60;;;16.48;;
10387;SDS011;5240;51.128;4.566;2022-11-04T12:23:13;18.13;;;15.35;;
10387;SDS011;5240;51.128;4.566;2022-11-04T12:25:47;27.05;;;19.30;;
10387;SDS011;5240;51.128;4.566;2022-11-04T12:28:26;31.35;;;14.80;;
10387;SDS011;5240;51.128;4.566;2022-11-04T12:31:06;19.35;;;12.32;;
10387;SDS011;5240;51.128;4.566;2022-11-04T12:33:43;13.20;;;11.57;;
10387;SDS011;5240;51.128;4.566;2022-11-04T12:36:23;14.60;;;11.63;;
10387;SDS011;5240;51.128;4.566;2022-11-04T12:39:01;21.08;;;12.48;;
10387;SDS011;5240;51.128;4.566;2022-11-04T12:41:39;17.08;;;12.60;;
10387;SDS011;5240;51.128;4.566;2022-11-04T12:44:12;24.67;;;13.13;;
10387;SDS011;5240;51.128;4.566;2022-11-04T12:46:54;25.45;;;13.40;;
10387;SDS011;5240;51.128;4.566;2022-11-04T12:49:47;21.40;;;12.23;;
10387;SDS011;5240;51.128;4.566;2022-11-04T12:52:29;21.27;;;12.70;;
10387;SDS011;5240;51.128;4.566;2022-11-04T12:55:16;14.48;;;11.57;;
10387;SDS011;5240;51.128;4.566;2022-11-04T12:57:54;17.00;;;12.15;;
10387;SDS011;5240;51.128;4.566;2022-11-04T13:00:28;19.50;;;12.93;;
10387;SDS011;5240;51.128;4.566;2022-11-04T13:02:59;14.35;;;12.05;;
10387;SDS011;5240;51.128;4.566;2022-11-04T13:05:32;16.45;;;10.85;;
10387;SDS011;5240;51.128;4.566;2022-11-04T13:08:08;13.15;;;10.27;;
10387;SDS011;5240;51.128;4.566;2022-11-04T13:10:41;13.43;;;8.45;;
10387;SDS011;5240;51.128;4.566;2022-11-04T13:13:11;14.32;;;7.30;;
10387;SDS011;5240;51.128;4.566;2022-11-04T13:15:42;12.30;;;7.10;;
10387;SDS011;5240;51.128;4.566;2022-11-04T13:18:15;11.30;;;6.22;;
10387;SDS011;5240;51.128;4.566;2022-11-04T13:20:47;16.63;;;6.15;;
10387;SDS011;5240;51.128;4.566;2022-11-04T13:23:21;8.25;;;6.70;;
10387;SDS011;5240;51.128;4.566;2022-11-04T13:25:53;12.95;;;7.45;;
10387;SDS011;5240;51.128;4.566;2022-11-04T13:28:23;11.05;;;6.40;;
10387;SDS011;5240;51.128;4.566;2022-11-04T13:30:52;12.07;;;6.43;;
10387;SDS011;5240;51.128;4.566;2022-11-04T13:33:28;10.70;;;6.53;;
10387;SDS011;5240;51.128;4.566;2022-11-04T13:36:07;11.85;;;7.18;;
10387;SDS011;5240;51.128;4.566;2022-11-04T13:38:48;9.45;;;5.97;;
10387;SDS011;5240;51.128;4.566;2022-11-04T13:41:25;8.98;;;5.25;;
10387;SDS011;5240;51.128;4.566;2022-11-04T13:44:20;6.95;;;4.25;;
10387;SDS011;5240;51.128;4.566;2022-11-04T13:46:51;6.72;;;4.50;;
10387;SDS011;5240;51.128;4.566;2022-11-04T13:49:24;7.82;;;3.75;;
10387;SDS011;5240;51.128;4.566;2022-11-04T13:52:00;8.52;;;3.50;;
10387;SDS011;5240;51.128;4.566;2022-11-04T13:54:31;9.88;;;3.60;;
10387;SDS011;5240;51.128;4.566;2022-11-04T13:57:08;5.90;;;3.15;;
10387;SDS011;5240;51.128;4.566;2022-11-04T13:59:38;7.85;;;3.28;;
10387;SDS011;5240;51.128;4.566;2022-11-04T14:02:35;6.82;;;2.72;;
10387;SDS011;5240;51.128;4.566;2022-11-04T14:08:21;8.80;;;2.83;;
10387;SDS011;5240;51.128;4.566;2022-11-04T14:13:46;8.77;;;2.10;;
10387;SDS011;5240;51.128;4.566;2022-11-04T14:16:36;2.75;;;1.60;;
10387;SDS011;5240;51.128;4.566;2022-11-04T14:22:20;5.68;;;2.10;;
10387;SDS011;5240;51.128;4.566;2022-11-04T14:24:55;5.47;;;1.80;;
10387;SDS011;5240;51.128;4.566;2022-11-04T14:27:25;4.45;;;2.25;;
10387;SDS011;5240;51.128;4.566;2022-11-04T14:29:56;4.65;;;1.80;;
10387;SDS011;5240;51.128;4.566;2022-11-04T14:32:24;4.07;;;2.03;;
10387;SDS011;5240;51.128;4.566;2022-11-04T14:34:57;6.07;;;2.35;;
10387;SDS011;5240;51.128;4.566;2022-11-04T14:37:26;4.68;;;2.00;;
10387;SDS011;5240;51.128;4.566;2022-11-04T14:39:59;6.45;;;2.42;;
10387;SDS011;5240;51.128;4.566;2022-11-04T14:42:40;4.15;;;2.22;;
10387;SDS011;5240;51.128;4.566;2022-11-04T14:45:11;5.57;;;1.60;;
10387;SDS011;5240;51.128;4.566;2022-11-04T14:47:45;3.53;;;1.70;;
10387;SDS011;5240;51.128;4.566;2022-11-04T14:50:17;5.15;;;1.70;;
10387;SDS011;5240;51.128;4.566;2022-11-04T14:52:47;3.83;;;1.77;;
10387;SDS011;5240;51.128;4.566;2022-11-04T14:55:20;3.67;;;1.77;;
10387;SDS011;5240;51.128;4.566;2022-11-04T14:57:49;3.55;;;1.98;;
10387;SDS011;5240;51.128;4.566;2022-11-04T15:00:18;4.05;;;1.35;;
10387;SDS011;5240;51.128;4.566;2022-11-04T15:02:57;3.22;;;1.40;;
10387;SDS011;5240;51.128;4.566;2022-11-04T15:05:27;6.00;;;1.50;;
10387;SDS011;5240;51.128;4.566;2022-11-04T15:07:57;3.67;;;1.40;;
10387;SDS011;5240;51.128;4.566;2022-11-04T15:10:27;4.88;;;1.40;;
10387;SDS011;5240;51.128;4.566;2022-11-04T15:12:57;2.85;;;1.25;;
10387;SDS011;5240;51.128;4.566;2022-11-04T15:15:32;1.52;;;1.15;;
10387;SDS011;5240;51.128;4.566;2022-11-04T15:18:03;5.00;;;1.35;;
10387;SDS011;5240;51.128;4.566;2022-11-04T15:20:35;2.83;;;1.20;;
10387;SDS011;5240;51.128;4.566;2022-11-04T15:23:11;3.33;;;1.40;;
10387;SDS011;5240;51.128;4.566;2022-11-04T15:25:45;1.20;;;1.10;;
10387;SDS011;5240;51.128;4.566;2022-11-04T15:28:20;3.42;;;1.35;;
10387;SDS011;5240;51.128;4.566;2022-11-04T15:31:06;3.70;;;1.35;;
10387;SDS011;5240;51.128;4.566;2022-11-04T15:33:41;4.85;;;2.03;;
10387;SDS011;5240;51.128;4.566;2022-11-04T15:36:11;2.50;;;1.48;;
10387;SDS011;5240;51.128;4.566;2022-11-04T15:38:43;3.38;;;1.40;;
10387;SDS011;5240;51.128;4.566;2022-11-04T15:41:14;4.90;;;1.42;;
10387;SDS011;5240;51.128;4.566;2022-11-04T15:44:02;5.07;;;1.50;;
10387;SDS011;5240;51.128;4.566;2022-11-04T15:46:30;3.97;;;1.40;;
10387;SDS011;5240;51.128;4.566;2022-11-04T15:49:04;2.80;;;1.30;;
10387;SDS011;5240;51.128;4.566;2022-11-04T15:51:38;2.95;;;1.45;;